createdAt,value
2019-04-04T00:00:08.594Z,13.30
2019-04-04T00:02:38.002Z,12.58
2019-04-04T00:05:07.407Z,12.53
2019-04-04T00:07:36.737Z,13.43
2019-04-04T00:10:10.442Z,12.60
2019-04-04T00:12:39.789Z,12.88
2019-04-04T00:15:09.215Z,12.98
2019-04-04T00:17:38.565Z,12.28
2019-04-04T00:20:08.034Z,11.83
2019-04-04T00:22:37.441Z,12.63
2019-04-04T00:25:09.788Z,12.45
2019-04-04T00:27:38.785Z,13.40
2019-04-04T00:30:09.834Z,13.35
2019-04-04T00:32:39.230Z,12.13
2019-04-04T00:35:08.712Z,13.10
2019-04-04T00:37:40.905Z,12.70
2019-04-04T00:40:11.643Z,13.83
2019-04-04T00:42:41.302Z,15.05
2019-04-04T00:45:12.482Z,15.95
2019-04-04T00:47:41.805Z,15.68
2019-04-04T00:50:11.219Z,16.12
2019-04-04T00:52:41.352Z,14.40
2019-04-04T00:55:11.055Z,16.85
2019-04-04T00:57:40.379Z,16.50
2019-04-04T01:00:09.965Z,15.70
2019-04-04T01:02:39.295Z,15.53
2019-04-04T01:05:09.414Z,16.27
2019-04-04T01:07:38.737Z,17.05
2019-04-04T01:10:08.630Z,15.88
2019-04-04T01:12:37.964Z,17.07
2019-04-04T01:15:07.534Z,16.27
2019-04-04T01:17:36.870Z,16.55
2019-04-04T01:20:08.239Z,16.45
2019-04-04T01:22:37.710Z,16.60
2019-04-04T01:25:07.323Z,15.63
2019-04-04T01:27:36.918Z,16.65
2019-04-04T01:30:08.166Z,16.60
2019-04-04T01:32:37.507Z,16.75
2019-04-04T01:35:07.635Z,15.95
2019-04-04T01:37:36.968Z,16.65
2019-04-04T01:40:06.922Z,16.15
2019-04-04T01:42:38.721Z,15.80
2019-04-04T01:45:08.142Z,15.75
2019-04-04T01:47:37.552Z,16.67
2019-04-04T01:50:10.208Z,17.17
2019-04-04T01:52:39.546Z,16.27
2019-04-04T01:55:09.008Z,16.97
2019-04-04T01:57:38.934Z,15.88
2019-04-04T02:00:10.065Z,16.48
2019-04-04T02:02:39.403Z,15.93
2019-04-04T02:05:09.181Z,15.38
2019-04-04T02:07:38.523Z,14.58
2019-04-04T02:10:07.987Z,14.33
2019-04-04T02:12:39.186Z,13.40
2019-04-04T02:15:10.085Z,13.88
2019-04-04T02:17:40.394Z,14.35
2019-04-04T02:20:09.861Z,13.00
2019-04-04T02:22:39.197Z,13.15
2019-04-04T02:25:08.659Z,13.58
2019-04-04T02:27:38.450Z,13.65
2019-04-04T02:30:08.810Z,13.65
2019-04-04T02:32:38.142Z,13.08
2019-04-04T02:35:10.131Z,13.08
2019-04-04T02:37:38.630Z,13.60
2019-04-04T02:40:10.217Z,14.33
2019-04-04T02:42:39.708Z,15.68
2019-04-04T02:45:09.172Z,14.75
2019-04-04T02:47:38.522Z,15.18
2019-04-04T02:50:09.859Z,14.63
2019-04-04T02:52:39.195Z,14.10
2019-04-04T02:55:08.751Z,13.48
2019-04-04T02:57:41.159Z,13.68
2019-04-04T03:00:09.651Z,13.98
2019-04-04T03:02:39.031Z,14.03
2019-04-04T03:05:09.625Z,13.38
2019-04-04T03:07:39.035Z,14.03
2019-04-04T03:10:08.510Z,13.15
2019-04-04T03:12:37.844Z,12.75
2019-04-04T03:15:09.171Z,12.78
2019-04-04T03:17:39.137Z,12.25
2019-04-04T03:20:10.185Z,13.10
2019-04-04T03:22:39.530Z,13.32
2019-04-04T03:25:08.937Z,13.93
2019-04-04T03:27:38.262Z,13.65
2019-04-04T03:30:13.544Z,14.85
2019-04-04T03:32:39.923Z,13.48
2019-04-04T03:35:09.331Z,13.65
2019-04-04T03:37:41.026Z,14.50
2019-04-04T03:40:10.538Z,14.47
2019-04-04T03:42:44.009Z,14.45
2019-04-04T03:45:11.038Z,13.88
2019-04-04T03:47:43.200Z,13.48
2019-04-04T03:50:11.488Z,14.83
2019-04-04T03:53:00.209Z,14.30
2019-04-04T03:55:29.559Z,15.18
2019-04-04T03:57:58.874Z,14.93
2019-04-04T04:00:31.689Z,15.68
2019-04-04T04:03:01.027Z,15.70
2019-04-04T04:05:35.546Z,16.82
2019-04-04T04:08:03.089Z,17.40
2019-04-04T04:10:33.738Z,18.23
2019-04-04T04:13:03.397Z,18.92
2019-04-04T04:15:32.744Z,18.80
2019-04-04T04:18:02.067Z,16.57
2019-04-04T04:20:36.367Z,15.30
2019-04-04T04:23:02.429Z,17.27
2019-04-04T04:25:35.259Z,16.97
2019-04-04T04:28:03.224Z,16.42
2019-04-04T04:30:32.717Z,16.85
2019-04-04T04:33:02.114Z,16.77
2019-04-04T04:35:31.447Z,16.32
2019-04-04T04:38:00.771Z,17.65
2019-04-04T04:40:30.112Z,17.23
2019-04-04T04:43:00.706Z,16.82
2019-04-04T04:45:30.336Z,17.87
2019-04-04T04:48:00.200Z,16.62
2019-04-04T04:50:29.673Z,17.42
2019-04-04T04:52:59.010Z,17.27
2019-04-04T04:55:28.347Z,17.12
2019-04-04T04:57:57.685Z,17.02
2019-04-04T05:00:27.879Z,16.97
2019-04-04T05:02:57.551Z,17.67
2019-04-04T05:05:26.947Z,18.65
2019-04-04T05:07:56.291Z,18.17
2019-04-04T05:10:25.649Z,17.92
2019-04-04T05:12:55.034Z,17.70
2019-04-04T05:15:24.380Z,18.15
2019-04-04T05:17:58.209Z,18.98
2019-04-04T05:20:29.843Z,18.82
2019-04-04T05:22:59.014Z,16.93
2019-04-04T05:25:31.357Z,17.77
2019-04-04T05:28:00.592Z,18.27
2019-04-04T05:30:29.923Z,18.48
2019-04-04T05:32:59.265Z,17.42
2019-04-04T05:35:28.604Z,16.95
2019-04-04T05:37:57.954Z,16.48
2019-04-04T05:40:27.425Z,17.60
2019-04-04T05:42:56.850Z,18.30
2019-04-04T05:45:26.257Z,18.12
2019-04-04T05:47:58.318Z,19.67
2019-04-04T05:50:26.635Z,19.90
2019-04-04T05:52:55.989Z,20.43
2019-04-04T05:55:25.455Z,19.85
2019-04-04T05:57:54.786Z,20.45
2019-04-04T06:00:26.929Z,20.52
2019-04-04T06:02:55.156Z,21.62
2019-04-04T06:05:26.863Z,20.50
2019-04-04T06:07:55.523Z,21.17
2019-04-04T06:10:25.011Z,21.40
2019-04-04T06:12:56.135Z,22.20
2019-04-04T06:15:27.357Z,20.80
2019-04-04T06:17:56.759Z,20.62
2019-04-04T06:20:26.082Z,21.35
2019-04-04T06:22:55.424Z,20.92
2019-04-04T06:25:24.750Z,22.58
2019-04-04T06:27:54.094Z,20.20
2019-04-04T06:30:43.774Z,20.40
2019-04-04T06:33:14.484Z,22.25
2019-04-04T06:35:47.044Z,21.82
2019-04-04T06:38:14.860Z,23.42
2019-04-04T06:40:44.249Z,23.55
2019-04-04T06:43:13.591Z,23.67
2019-04-04T06:45:46.145Z,21.68
2019-04-04T06:48:14.028Z,20.65
2019-04-04T06:50:43.354Z,23.20
2019-04-04T06:53:12.963Z,20.72
2019-04-04T06:55:42.361Z,23.87
2019-04-04T06:58:11.725Z,24.98
2019-04-04T07:00:42.191Z,24.50
2019-04-04T07:03:11.730Z,25.25
2019-04-04T07:05:41.055Z,27.17
2019-04-04T07:08:10.394Z,26.12
2019-04-04T07:10:39.714Z,24.60
2019-04-04T07:13:21.035Z,25.90
2019-04-04T07:15:46.658Z,26.35
2019-04-04T07:18:12.241Z,25.57
2019-04-04T07:20:42.321Z,24.67
2019-04-04T07:23:14.194Z,26.73
2019-04-04T07:25:42.683Z,27.07
2019-04-04T07:28:12.028Z,25.68
2019-04-04T07:30:41.359Z,27.55
2019-04-04T07:33:12.729Z,28.02
2019-04-04T07:36:01.058Z,27.15
2019-04-04T07:38:30.426Z,28.10
2019-04-04T07:40:59.746Z,25.70
2019-04-04T07:43:29.077Z,25.02
2019-04-04T07:46:01.314Z,28.00
2019-04-04T07:48:29.478Z,28.02
2019-04-04T07:50:59.794Z,29.20
2019-04-04T07:53:29.134Z,28.92
2019-04-04T07:55:58.456Z,29.25
2019-04-04T07:58:28.066Z,28.20
2019-04-04T08:00:57.763Z,28.20
2019-04-04T08:03:27.102Z,29.02
2019-04-04T08:05:56.471Z,28.95
2019-04-04T08:08:25.820Z,28.73
2019-04-04T08:10:55.165Z,28.80
2019-04-04T08:13:24.516Z,28.90
2019-04-04T08:15:53.868Z,31.37
2019-04-04T08:18:23.178Z,30.00
2019-04-04T08:20:53.591Z,30.23
2019-04-04T08:23:22.922Z,28.45
2019-04-04T08:25:52.268Z,28.62
2019-04-04T08:28:21.584Z,30.30
2019-04-04T08:30:50.922Z,29.10
2019-04-04T08:33:20.254Z,26.60
2019-04-04T08:35:50.588Z,27.77
2019-04-04T08:38:21.542Z,27.52
2019-04-04T08:40:50.875Z,28.95
2019-04-04T08:43:21.270Z,28.87
2019-04-04T08:45:50.723Z,28.42
2019-04-04T08:48:20.045Z,30.35
2019-04-04T08:50:49.387Z,26.70
2019-04-04T08:53:18.737Z,26.62
2019-04-04T08:55:48.085Z,27.02
2019-04-04T08:58:18.417Z,19.27
2019-04-04T09:00:47.776Z,17.98
2019-04-04T09:03:17.106Z,16.97
2019-04-04T09:05:46.448Z,16.90
2019-04-04T09:08:15.786Z,15.38
2019-04-04T09:10:45.131Z,13.18
2019-04-04T09:13:14.482Z,13.13
2019-04-04T09:15:43.925Z,11.93
2019-04-04T09:18:14.236Z,9.88
2019-04-04T09:20:43.751Z,9.65
2019-04-04T09:23:13.098Z,10.00
2019-04-04T09:25:42.455Z,8.83
2019-04-04T09:28:11.778Z,8.90
2019-04-04T09:30:42.197Z,8.93
2019-04-04T09:33:11.532Z,8.10
2019-04-04T09:35:40.938Z,6.97
2019-04-04T09:38:10.282Z,7.37
2019-04-04T09:40:39.698Z,6.78
2019-04-04T09:43:09.039Z,6.20
2019-04-04T09:45:38.378Z,5.55
2019-04-04T09:48:07.713Z,6.05
2019-04-04T09:50:37.059Z,6.37
2019-04-04T09:53:06.485Z,6.03
2019-04-04T09:55:35.872Z,5.40
2019-04-04T09:58:05.214Z,5.28
2019-04-04T10:00:34.624Z,5.65
2019-04-04T10:03:04.035Z,4.95
2019-04-04T10:05:33.438Z,5.35
2019-04-04T10:08:03.094Z,5.12
2019-04-04T10:10:32.456Z,5.42
2019-04-04T10:13:01.819Z,5.58
2019-04-04T10:15:32.215Z,4.78
2019-04-04T10:18:01.625Z,4.80
2019-04-04T10:20:31.030Z,5.20
2019-04-04T10:23:00.464Z,5.10
2019-04-04T10:25:29.806Z,4.65
2019-04-04T10:27:59.197Z,4.60
2019-04-04T10:30:28.521Z,3.98
2019-04-04T10:32:57.857Z,4.17
2019-04-04T10:35:27.184Z,3.95
2019-04-04T10:37:56.590Z,3.55
2019-04-04T10:40:25.924Z,3.80
2019-04-04T10:42:55.263Z,3.55
2019-04-04T10:45:24.591Z,3.30
2019-04-04T10:47:53.951Z,3.98
2019-04-04T10:50:25.195Z,3.45
2019-04-04T10:52:54.868Z,3.40
2019-04-04T10:55:24.197Z,3.37
2019-04-04T10:57:53.542Z,3.10
2019-04-04T11:00:23.094Z,3.35
2019-04-04T11:02:52.565Z,3.47
2019-04-04T11:05:21.882Z,3.12
2019-04-04T11:07:51.508Z,3.22
2019-04-04T11:10:51.937Z,3.33
2019-04-04T11:13:03.248Z,2.72
2019-04-04T19:26:05.219Z,4.37
2019-04-04T19:28:34.719Z,4.33
2019-04-04T19:31:05.813Z,4.10
2019-04-04T19:33:35.275Z,6.22
2019-04-04T19:36:04.960Z,4.40
2019-04-04T19:38:34.286Z,7.75
2019-04-04T19:41:03.632Z,5.40
2019-04-04T19:43:33.155Z,3.52
2019-04-04T19:46:02.529Z,5.03
2019-04-04T19:48:31.875Z,4.33
2019-04-04T19:51:01.215Z,6.92
2019-04-04T19:53:30.558Z,7.45
2019-04-04T19:55:59.898Z,4.15
2019-04-04T19:58:29.291Z,5.10
2019-04-04T20:00:58.783Z,6.58
2019-04-04T20:03:28.103Z,5.05
2019-04-04T20:05:57.444Z,4.78
2019-04-04T20:08:26.906Z,4.72
2019-04-04T20:10:56.269Z,4.08
2019-04-04T20:13:31.200Z,4.40
2019-04-04T20:15:57.814Z,6.75
2019-04-04T20:18:27.179Z,5.35
2019-04-04T20:20:56.520Z,6.10
2019-04-04T20:23:25.867Z,9.73
2019-04-04T20:25:55.241Z,16.02
2019-04-04T20:28:24.637Z,45.38
2019-04-04T20:31:00.084Z,34.15
2019-04-04T20:33:29.424Z,19.15
2019-04-04T20:35:58.771Z,14.58
2019-04-04T20:38:28.191Z,77.92
2019-04-04T20:40:59.375Z,49.13
2019-04-04T20:43:28.706Z,29.12
2019-04-04T20:45:58.339Z,14.95
2019-04-04T20:48:27.658Z,7.85
2019-04-04T20:50:57.071Z,6.08
2019-04-04T20:53:26.412Z,5.28
2019-04-04T20:55:55.821Z,4.50
2019-04-04T20:58:25.146Z,5.03
2019-04-04T21:00:55.523Z,5.50
2019-04-04T21:03:24.866Z,9.68
2019-04-04T21:05:54.268Z,5.40
2019-04-04T21:08:24.687Z,5.62
2019-04-04T21:10:54.028Z,5.30
2019-04-04T21:13:23.361Z,5.20
2019-04-04T21:15:52.719Z,5.40
2019-04-04T21:18:23.017Z,5.47
2019-04-04T21:20:52.358Z,5.50
2019-04-04T21:23:21.710Z,5.50
2019-04-04T21:25:51.333Z,5.58
2019-04-04T21:28:21.634Z,5.45
2019-04-04T21:30:50.970Z,6.17
2019-04-04T21:33:20.318Z,6.75
2019-04-04T21:35:49.710Z,6.65
2019-04-04T21:38:19.123Z,6.47
2019-04-04T21:40:48.448Z,5.50
2019-04-04T21:43:17.870Z,5.92
2019-04-04T21:45:48.262Z,6.28
2019-04-04T21:48:17.671Z,6.30
2019-04-04T21:50:47.009Z,11.93
2019-04-04T21:53:16.390Z,12.07
2019-04-04T21:55:45.738Z,11.88
2019-04-04T21:58:15.075Z,11.30
2019-04-04T22:00:45.299Z,7.87
2019-04-04T22:03:16.397Z,7.17
2019-04-04T22:05:45.779Z,8.40
2019-04-04T22:08:15.130Z,23.65
2019-04-04T22:10:44.531Z,10.72
2019-04-04T22:13:13.947Z,7.70
2019-04-04T22:15:44.184Z,7.42
2019-04-04T22:18:13.531Z,7.80
2019-04-04T22:20:43.090Z,7.22
2019-04-04T22:23:12.439Z,7.22
2019-04-04T22:25:41.763Z,7.85
2019-04-04T22:28:11.107Z,7.47
2019-04-04T22:30:40.430Z,8.35
2019-04-04T22:33:09.769Z,8.43
2019-04-04T22:35:39.097Z,8.45
2019-04-04T22:38:08.439Z,8.85
2019-04-04T22:40:37.767Z,8.60
2019-04-04T22:43:07.099Z,8.93
2019-04-04T22:45:36.418Z,8.73
2019-04-04T22:48:05.756Z,8.40
2019-04-04T22:50:35.075Z,8.65
2019-04-04T22:53:04.412Z,9.08
2019-04-04T22:55:33.740Z,9.03
2019-04-04T22:58:03.094Z,9.35
2019-04-04T23:00:32.413Z,10.10
2019-04-04T23:03:03.535Z,9.13
2019-04-04T23:05:32.871Z,10.15
2019-04-04T23:08:02.394Z,10.23
2019-04-04T23:10:31.760Z,10.38
2019-04-04T23:13:01.102Z,11.05
2019-04-04T23:15:30.438Z,11.28
2019-04-04T23:17:59.783Z,10.88
2019-04-04T23:20:29.107Z,11.50
2019-04-04T23:23:01.059Z,11.43
2019-04-04T23:25:29.466Z,11.25
2019-04-04T23:27:58.805Z,11.85
2019-04-04T23:30:28.129Z,11.55
2019-04-04T23:32:57.479Z,11.25
2019-04-04T23:35:27.945Z,12.47
2019-04-04T23:37:57.298Z,12.10
2019-04-04T23:40:26.623Z,12.65
2019-04-04T23:42:55.970Z,12.18
2019-04-04T23:45:25.322Z,13.18
2019-04-04T23:47:54.665Z,12.25
2019-04-04T23:50:23.992Z,11.78
2019-04-04T23:52:53.335Z,11.97
2019-04-04T23:55:22.674Z,13.03
2019-04-04T23:57:52.004Z,13.70
